createdAt,value
2016-12-20T10:16:47.757Z,18272
2016-12-20T10:17:04.932Z,18144
2016-12-20T10:17:22.134Z,18016
2016-12-20T10:17:39.296Z,17824
2016-12-20T10:17:56.482Z,17664
2016-12-20T10:18:13.678Z,17536
2016-12-20T10:18:31.246Z,17260
2016-12-20T10:18:48.995Z,17108
2016-12-20T10:19:06.163Z,16976
2016-12-20T10:19:23.326Z,16860
2016-12-20T10:19:40.515Z,16764
2016-12-20T10:19:57.716Z,16692
2016-12-20T10:20:15.015Z,16640
2016-12-20T10:20:32.212Z,16616
2016-12-20T10:20:50.003Z,16612
2016-12-20T10:21:07.282Z,16644
2016-12-20T10:21:24.486Z,16708
2016-12-20T10:21:41.654Z,16796
2016-12-20T10:21:58.942Z,16908
2016-12-20T10:22:16.136Z,17044
2016-12-20T10:22:33.351Z,17196
2016-12-20T10:22:50.783Z,17504
2016-12-20T10:23:08.894Z,17696
2016-12-20T10:23:26.096Z,17888
2016-12-20T10:23:43.320Z,18112
2016-12-20T10:24:01.990Z,18336
2016-12-20T10:24:19.780Z,18592
2016-12-20T10:24:36.973Z,18784
2016-12-20T10:24:54.146Z,19040
2016-12-20T10:25:11.337Z,19264
2016-12-20T10:25:28.510Z,19456
2016-12-20T10:25:45.701Z,19616
2016-12-20T10:26:02.872Z,19776
2016-12-20T10:26:20.060Z,19936
2016-12-20T10:26:37.247Z,20096
2016-12-20T10:26:54.468Z,20256
2016-12-20T10:27:11.627Z,20384
2016-12-20T10:27:28.811Z,20480
2016-12-20T10:27:45.984Z,20576
2016-12-20T10:28:03.782Z,20704
2016-12-20T10:28:21.007Z,20768
2016-12-20T10:28:38.258Z,20800
2016-12-20T10:28:55.496Z,20864
2016-12-20T10:29:13.239Z,20896
2016-12-20T10:29:31.126Z,20896
2016-12-20T10:29:48.291Z,20896
2016-12-20T10:30:05.484Z,20928
2016-12-20T10:30:22.698Z,20928
2016-12-20T10:30:39.907Z,20960
2016-12-20T10:30:57.095Z,20992
2016-12-20T10:31:14.843Z,21056
2016-12-20T10:31:32.582Z,21152
2016-12-20T10:31:49.772Z,21280
2016-12-20T10:32:06.992Z,21472
2016-12-20T10:32:24.171Z,21696
2016-12-20T10:32:41.335Z,22048
2016-12-20T10:32:58.522Z,22432
2016-12-20T10:33:15.707Z,22912
2016-12-20T10:33:32.875Z,23392
2016-12-20T10:33:50.072Z,23904
2016-12-20T10:34:07.275Z,24416
2016-12-20T10:34:24.456Z,24864
2016-12-20T10:34:41.755Z,25248
2016-12-20T10:34:59.121Z,25504
2016-12-20T10:35:16.374Z,25600
2016-12-20T10:35:33.521Z,25632
2016-12-20T10:35:51.280Z,25600
2016-12-20T10:36:08.442Z,25568
2016-12-20T10:36:25.624Z,25536
2016-12-20T10:36:42.961Z,25504
2016-12-20T10:37:00.148Z,25472
2016-12-20T10:37:17.326Z,25440
2016-12-20T10:37:34.544Z,25376
2016-12-20T10:37:51.806Z,25344
2016-12-20T10:38:09.071Z,25344
2016-12-20T10:38:26.306Z,25280
2016-12-20T10:38:43.467Z,25184
2016-12-20T10:39:00.662Z,25056
2016-12-20T10:39:17.847Z,24928
2016-12-20T10:39:35.006Z,24832
2016-12-20T10:39:52.190Z,24672
2016-12-20T10:40:09.377Z,24512
2016-12-20T10:40:26.549Z,24320
2016-12-20T10:40:43.728Z,24160
2016-12-20T10:41:00.922Z,24064
2016-12-20T10:41:18.085Z,23872
2016-12-20T10:41:35.284Z,23808
2016-12-20T10:41:52.507Z,23680
2016-12-20T10:42:09.694Z,23648
2016-12-20T10:42:26.880Z,23584
2016-12-20T10:42:44.068Z,23520
2016-12-20T10:43:01.278Z,23456
2016-12-20T10:43:18.474Z,23456
2016-12-20T10:43:35.719Z,23456
2016-12-20T10:43:52.899Z,23456
2016-12-20T10:44:10.082Z,23456
2016-12-20T10:44:27.295Z,23488
2016-12-20T10:44:44.482Z,23488
2016-12-20T10:45:01.719Z,23552
2016-12-20T10:45:18.913Z,23584
2016-12-20T10:45:36.115Z,23616
2016-12-20T10:45:53.320Z,23712
2016-12-20T10:46:10.551Z,23776
2016-12-20T10:46:27.765Z,23808
2016-12-20T10:46:45.003Z,23872
2016-12-20T10:47:02.447Z,23968
2016-12-20T10:47:22.201Z,24128
2016-12-20T10:47:40.904Z,24384
2016-12-20T10:47:58.125Z,24800
2016-12-20T10:48:15.919Z,25248
2016-12-20T10:49:01.943Z,26048
2016-12-20T10:49:33.578Z,26080
2016-12-20T10:50:24.996Z,25888
2016-12-20T10:50:42.198Z,25568
2016-12-20T10:51:02.178Z,25504
2016-12-20T10:51:19.903Z,25440
2016-12-20T10:51:37.159Z,25440
2016-12-20T10:51:54.366Z,25408
2016-12-20T10:52:11.601Z,25472
2016-12-20T10:52:28.800Z,25472
2016-12-20T10:52:46.065Z,25568
2016-12-20T10:53:03.262Z,25696
2016-12-20T10:53:20.495Z,25824
2016-12-20T10:53:37.721Z,26080
2016-12-20T10:53:54.911Z,26304
2016-12-20T10:54:26.832Z,26944
2016-12-20T10:54:44.017Z,27360
2016-12-20T10:55:01.215Z,27872
2016-12-20T10:55:18.426Z,28352
2016-12-20T10:55:35.618Z,28992
2016-12-20T10:56:07.267Z,30016
2016-12-20T10:56:38.873Z,31200
2016-12-20T10:57:10.466Z,32192
2016-12-20T10:57:27.696Z,32640
2016-12-20T10:57:44.862Z,33056
2016-12-20T10:58:02.091Z,33376
2016-12-20T10:58:19.265Z,33696
2016-12-20T10:58:50.876Z,34112
2016-12-20T10:59:08.068Z,34272
2016-12-20T10:59:25.255Z,34400
2016-12-20T10:59:42.427Z,34432
2016-12-20T10:59:59.624Z,34432
2016-12-20T11:00:16.851Z,34432
2016-12-20T11:00:34.038Z,34336
2016-12-20T11:00:51.278Z,34272
2016-12-20T11:01:08.479Z,34208
2016-12-20T11:01:25.673Z,34080
2016-12-20T11:01:42.853Z,34048
2016-12-20T11:02:00.020Z,33984
2016-12-20T11:02:17.284Z,33888
2016-12-20T11:02:34.501Z,33920
2016-12-20T11:02:51.693Z,33984
2016-12-20T11:03:08.870Z,33984
2016-12-20T11:03:26.068Z,33856
2016-12-20T11:03:43.261Z,33728
2016-12-20T11:04:00.454Z,33664
2016-12-20T11:04:19.457Z,33632
2016-12-20T11:04:36.633Z,33632
2016-12-20T11:04:53.834Z,33664
2016-12-20T11:05:11.004Z,33728
2016-12-20T11:05:28.194Z,33824
2016-12-20T11:05:45.461Z,33952
2016-12-20T11:06:02.664Z,34048
2016-12-20T11:06:19.910Z,34272
2016-12-20T11:06:37.210Z,34528
2016-12-20T11:06:54.364Z,34944
2016-12-20T11:07:11.560Z,35552
2016-12-20T11:07:29.368Z,35872
2016-12-20T11:07:46.612Z,36128
2016-12-20T11:08:03.797Z,36736
2016-12-20T11:08:21.031Z,38144
2016-12-20T11:08:38.234Z,37792
2016-12-20T11:08:55.427Z,36608
2016-12-20T11:09:12.637Z,36352
2016-12-20T11:09:29.812Z,36032
2016-12-20T11:09:47.002Z,35808
2016-12-20T11:10:04.156Z,35744
2016-12-20T11:10:21.357Z,35584
2016-12-20T11:10:38.571Z,35520
2016-12-20T11:10:55.789Z,35456
2016-12-20T11:11:12.975Z,35456
2016-12-20T11:11:30.158Z,35456
2016-12-20T11:11:47.372Z,35456
2016-12-20T11:12:04.590Z,35456
2016-12-20T11:12:21.883Z,35424
2016-12-20T11:12:39.068Z,35360
2016-12-20T11:12:56.285Z,35296
2016-12-20T11:13:13.519Z,35232
2016-12-20T11:13:30.775Z,35200
2016-12-20T11:13:47.972Z,35168
2016-12-20T11:14:05.271Z,35168
2016-12-20T11:14:22.457Z,35168
2016-12-20T11:14:39.651Z,35232
2016-12-20T11:14:56.823Z,35328
2016-12-20T11:15:14.573Z,33952
2016-12-20T11:15:31.758Z,34752
2016-12-20T11:15:48.952Z,35136
2016-12-20T11:16:06.150Z,35872
2016-12-20T11:16:23.735Z,35968
2016-12-20T11:16:41.122Z,36000
2016-12-20T11:16:58.524Z,36096
2016-12-20T11:17:15.723Z,36224
2016-12-20T11:17:32.919Z,36416
2016-12-20T11:17:50.103Z,36736
2016-12-20T11:18:07.276Z,37024
2016-12-20T11:18:24.459Z,37152
2016-12-20T11:18:41.619Z,37344
2016-12-20T11:18:58.882Z,37536
2016-12-20T11:19:16.264Z,37728
2016-12-20T11:19:33.544Z,37824
2016-12-20T11:19:50.782Z,37952
2016-12-20T11:20:07.976Z,37984
2016-12-20T11:20:25.155Z,38112
2016-12-20T11:20:42.343Z,38240
2016-12-20T11:20:59.532Z,38400
2016-12-20T11:21:16.729Z,38496
2016-12-20T11:21:33.924Z,38592
2016-12-20T11:21:51.104Z,38752
2016-12-20T11:22:08.278Z,38880
2016-12-20T11:22:25.537Z,39296
2016-12-20T11:22:42.848Z,39168
2016-12-20T11:23:00.045Z,39168
2016-12-20T11:23:17.227Z,39168
2016-12-20T11:23:34.508Z,39072
2016-12-20T11:23:52.340Z,39200
2016-12-20T11:24:09.576Z,39104
2016-12-20T11:24:26.959Z,38816
2016-12-20T11:24:44.228Z,38592
2016-12-20T11:25:01.421Z,38464
2016-12-20T11:25:19.413Z,38464
2016-12-20T11:25:36.633Z,38528
2016-12-20T11:25:53.857Z,38688
2016-12-20T11:26:11.078Z,38880
2016-12-20T11:26:28.270Z,39264
2016-12-20T11:26:45.607Z,39744
2016-12-20T11:27:02.833Z,40320
2016-12-20T11:27:20.093Z,40608
2016-12-20T11:27:37.304Z,40608
2016-12-20T11:27:54.531Z,40288
2016-12-20T11:28:11.754Z,40064
2016-12-20T11:28:28.960Z,40032
2016-12-20T11:28:46.180Z,40160
2016-12-20T11:29:03.398Z,40384
2016-12-20T11:29:20.611Z,40672
2016-12-20T11:29:37.805Z,40960
2016-12-20T11:29:55.073Z,41312
2016-12-20T11:30:12.306Z,41600
2016-12-20T11:30:29.672Z,42144
2016-12-20T11:30:46.901Z,43072
2016-12-20T11:31:04.085Z,44512
2016-12-20T11:31:21.521Z,47008
2016-12-20T11:31:38.730Z,70208
2016-12-20T11:31:55.983Z,47776
2016-12-20T11:32:13.193Z,44544
2016-12-20T11:32:30.405Z,43616
2016-12-20T11:32:47.592Z,43552
2016-12-20T11:33:04.787Z,43680
2016-12-20T11:33:21.982Z,43968
2016-12-20T11:33:39.161Z,44384
2016-12-20T11:33:56.348Z,44896
2016-12-20T11:34:13.694Z,45760
2016-12-20T11:34:31.017Z,49632
2016-12-20T11:34:48.212Z,59584
2016-12-20T11:35:05.457Z,54720
2016-12-20T11:35:22.649Z,51008
2016-12-20T11:35:39.983Z,50176
2016-12-20T11:35:57.278Z,50016
2016-12-20T11:36:14.565Z,50272
2016-12-20T11:36:31.840Z,51808
2016-12-20T11:36:49.101Z,53152
2016-12-20T11:37:06.340Z,52576
2016-12-20T11:37:23.498Z,51616
2016-12-20T11:37:40.731Z,51264
2016-12-20T11:37:57.966Z,51520
2016-12-20T11:38:15.217Z,52288
2016-12-20T11:38:32.842Z,57376
2016-12-20T11:38:50.040Z,69280
2016-12-20T11:39:07.416Z,61248
2016-12-20T11:39:24.658Z,54752
2016-12-20T11:39:42.279Z,53152
2016-12-20T11:40:00.001Z,53024
2016-12-20T11:40:17.239Z,54304
2016-12-20T11:40:34.434Z,61088
2016-12-20T11:40:51.612Z,61312
2016-12-20T11:41:08.800Z,56832
2016-12-20T11:41:26.223Z,54848
2016-12-20T11:41:43.635Z,53856
2016-12-20T11:42:00.840Z,52736
2016-12-20T11:42:18.025Z,52000
2016-12-20T11:42:35.327Z,52192
2016-12-20T11:42:52.522Z,52864
2016-12-20T11:43:09.700Z,54144
2016-12-20T11:43:26.912Z,56352
2016-12-20T11:43:44.168Z,59328
2016-12-20T11:44:01.460Z,63200
2016-12-20T11:44:18.710Z,65408
2016-12-20T11:44:35.888Z,67264
2016-12-20T11:44:53.118Z,73952
2016-12-20T11:45:10.313Z,81504
2016-12-20T11:45:27.512Z,86016
2016-12-20T11:45:44.773Z,71648
2016-12-20T11:46:01.956Z,67456
2016-12-20T11:46:19.137Z,67360
2016-12-20T11:46:36.332Z,71104
2016-12-20T11:46:53.514Z,70272
2016-12-20T11:47:10.735Z,66592
2016-12-20T11:47:42.323Z,70368
2016-12-20T11:47:59.540Z,95584
2016-12-20T11:48:17.286Z,97152
2016-12-20T11:48:34.563Z,77216
2016-12-20T11:48:51.819Z,62912
2016-12-20T11:49:09.096Z,60128
2016-12-20T11:49:26.355Z,58976
2016-12-20T11:49:43.554Z,56736
2016-12-20T11:50:15.118Z,56736
2016-12-20T11:50:32.385Z,57152
2016-12-20T11:50:49.594Z,58112
2016-12-20T11:51:06.751Z,59776
2016-12-20T11:51:23.967Z,60928
2016-12-20T11:51:41.167Z,62848
2016-12-20T11:51:58.410Z,66240
2016-12-20T11:52:15.576Z,74432
2016-12-20T11:52:32.798Z,104736
2016-12-20T11:52:50.010Z,105088
2016-12-20T11:53:07.228Z,96960
2016-12-20T11:53:24.391Z,106592
2016-12-20T11:53:41.600Z,94720
2016-12-20T11:53:58.796Z,112384
2016-12-20T11:54:16.075Z,113184
2016-12-20T11:54:33.320Z,108704
2016-12-20T11:54:50.982Z,90848
2016-12-20T11:55:08.396Z,102144
2016-12-20T11:55:25.585Z,99168
2016-12-20T11:55:42.915Z,105504
2016-12-20T11:56:00.239Z,88512
2016-12-20T11:56:17.415Z,74112
2016-12-20T11:56:34.599Z,71200
2016-12-20T11:56:51.811Z,68896
2016-12-20T11:57:10.986Z,71776
2016-12-20T11:57:29.569Z,72576
2016-12-20T11:57:46.792Z,90016
2016-12-20T11:58:03.989Z,85472
2016-12-20T11:58:21.753Z,88640
2016-12-20T11:58:39.014Z,88544
2016-12-20T11:58:57.524Z,87968
2016-12-20T11:59:14.783Z,77408
2016-12-20T11:59:31.986Z,68896
2016-12-20T11:59:49.232Z,66656
2016-12-20T12:00:06.434Z,65440
2016-12-20T12:00:24.176Z,64800
2016-12-20T12:00:41.377Z,65056
2016-12-20T12:00:58.619Z,65376
2016-12-20T12:01:15.990Z,64992
2016-12-20T12:01:33.291Z,65824
2016-12-20T12:01:51.089Z,71968
2016-12-20T12:02:08.284Z,66752
2016-12-20T12:02:25.563Z,63840
2016-12-20T12:02:42.914Z,61920
2016-12-20T12:03:00.209Z,60864
2016-12-20T12:03:17.462Z,62688
2016-12-20T12:03:34.671Z,61984
2016-12-20T12:03:51.879Z,59392
2016-12-20T12:04:09.070Z,57056
2016-12-20T12:04:26.245Z,54528
2016-12-20T12:04:43.439Z,53568
2016-12-20T12:05:00.663Z,53024
2016-12-20T12:05:17.863Z,52704
2016-12-20T12:05:35.156Z,52512
2016-12-20T12:05:52.392Z,52416
2016-12-20T12:06:09.639Z,52224
2016-12-20T12:06:27.005Z,51776
2016-12-20T12:06:44.413Z,50752
2016-12-20T12:07:01.721Z,50080
2016-12-20T12:07:20.138Z,49536
2016-12-20T12:07:37.754Z,49088
2016-12-20T12:07:54.956Z,48832
2016-12-20T12:08:12.203Z,48576
2016-12-20T12:08:29.409Z,48448
2016-12-20T12:08:46.612Z,48384
2016-12-20T12:09:03.829Z,48384
2016-12-20T12:09:21.084Z,48576
2016-12-20T12:09:38.350Z,49024
2016-12-20T12:09:55.622Z,50208
2016-12-20T12:10:12.853Z,52320
2016-12-20T12:10:30.093Z,54144
2016-12-20T12:10:47.356Z,55552
2016-12-20T12:11:04.600Z,63616
2016-12-20T12:11:21.808Z,65408
2016-12-20T12:11:39.214Z,66720
2016-12-20T12:11:56.430Z,97600
2016-12-20T12:12:13.961Z,94688
2016-12-20T12:12:31.209Z,103648
2016-12-20T12:12:48.406Z,96640
2016-12-20T12:13:05.621Z,104992
2016-12-20T12:13:22.849Z,89344
2016-12-20T12:13:40.285Z,92576
2016-12-20T12:13:57.677Z,69344
2016-12-20T12:14:14.947Z,67232
2016-12-20T12:14:32.191Z,67200
2016-12-20T12:14:49.579Z,65024
2016-12-20T12:15:06.777Z,67360
2016-12-20T12:15:38.456Z,60992
2016-12-20T12:15:55.690Z,59392
2016-12-20T12:16:12.893Z,57408
2016-12-20T12:16:30.388Z,62560
2016-12-20T12:16:47.774Z,60416
2016-12-20T12:17:05.269Z,63200
2016-12-20T12:17:22.550Z,59104
2016-12-20T12:17:39.789Z,63872
2016-12-20T12:17:57.054Z,59968
2016-12-20T12:18:14.302Z,74144
2016-12-20T12:18:31.524Z,85056
2016-12-20T12:18:48.791Z,103552
2016-12-20T12:19:05.968Z,147200
2016-12-20T12:19:23.197Z,61952
2016-12-20T12:19:40.403Z,67936
2016-12-20T12:19:57.576Z,125760
2016-12-20T12:20:14.739Z,80128
2016-12-20T12:20:31.963Z,59488
2016-12-20T12:20:49.796Z,58144
2016-12-20T12:21:07.392Z,57792
2016-12-20T12:21:24.601Z,55488
2016-12-20T12:21:41.795Z,54912
2016-12-20T12:21:59.029Z,62432
2016-12-20T12:22:16.266Z,56192
2016-12-20T12:22:33.539Z,52864
2016-12-20T12:22:50.897Z,51776
2016-12-20T12:23:08.096Z,53344
2016-12-20T12:23:25.337Z,51808
2016-12-20T12:23:42.654Z,50368
2016-12-20T12:24:00.047Z,49216
2016-12-20T12:24:17.388Z,48832
2016-12-20T12:24:35.006Z,49152
2016-12-20T12:24:52.198Z,49696
2016-12-20T12:25:10.041Z,50560
2016-12-20T12:25:27.231Z,55168
2016-12-20T12:25:44.452Z,51616
2016-12-20T12:26:01.683Z,49312
2016-12-20T12:26:18.850Z,49600
2016-12-20T12:26:36.163Z,48672
2016-12-20T12:26:53.339Z,48288
2016-12-20T12:27:10.557Z,48288
2016-12-20T12:27:27.759Z,48416
2016-12-20T12:27:44.960Z,48928
2016-12-20T12:28:02.158Z,49888
2016-12-20T12:28:19.394Z,50464
2016-12-20T12:28:37.568Z,51584
2016-12-20T12:28:54.762Z,55328
2016-12-20T12:29:12.146Z,56672
2016-12-20T12:29:32.324Z,53472
2016-12-20T12:29:50.911Z,52800
2016-12-20T12:30:54.158Z,55872
2016-12-20T12:31:11.429Z,51424
2016-12-20T12:31:57.432Z,50496
2016-12-20T12:32:29.089Z,55104
2016-12-20T12:32:46.317Z,75616
2016-12-20T12:33:17.952Z,64992
2016-12-20T12:33:37.038Z,57760
2016-12-20T12:34:26.170Z,52320
2016-12-20T12:34:44.460Z,52864
2016-12-20T12:35:01.801Z,53504
2016-12-20T12:35:19.059Z,52448
2016-12-20T12:35:37.271Z,54400
2016-12-20T12:36:42.773Z,52352
2016-12-20T12:38:02.760Z,55744
2016-12-20T12:38:19.978Z,71584
2016-12-20T12:38:37.216Z,63008
2016-12-20T12:38:54.505Z,66944
2016-12-20T12:39:12.273Z,71424
2016-12-20T12:39:33.630Z,61888
2016-12-20T12:39:50.974Z,59072
2016-12-20T12:40:08.753Z,56192
2016-12-20T12:40:26.013Z,57792
2016-12-20T12:40:43.279Z,61536
2016-12-20T12:41:00.533Z,76640
2016-12-20T12:41:17.914Z,73312
2016-12-20T12:41:35.123Z,81504
2016-12-20T12:41:52.370Z,68960
2016-12-20T12:42:09.606Z,66144
2016-12-20T12:42:27.439Z,74272
2016-12-20T12:42:44.708Z,65312
2016-12-20T12:43:02.551Z,65632
2016-12-20T12:43:19.817Z,60800
2016-12-20T12:43:37.086Z,59616
2016-12-20T12:43:54.755Z,69600
2016-12-20T12:44:12.263Z,93248
2016-12-20T12:44:29.669Z,104896
2016-12-20T12:44:46.921Z,98464
2016-12-20T12:45:04.239Z,103264
2016-12-20T12:45:21.534Z,85184
2016-12-20T12:45:38.750Z,74080
2016-12-20T12:45:55.955Z,80320
2016-12-20T12:46:13.220Z,89472
2016-12-20T12:46:30.451Z,71168
2016-12-20T12:46:47.628Z,65760
2016-12-20T12:47:05.336Z,66944
2016-12-20T12:47:22.551Z,63040
2016-12-20T12:47:39.827Z,62592
2016-12-20T12:47:57.093Z,71904
2016-12-20T12:48:14.309Z,70208
2016-12-20T12:48:31.547Z,73440
2016-12-20T12:49:03.271Z,100192
2016-12-20T12:49:20.506Z,96128
2016-12-20T12:49:37.809Z,93248
2016-12-20T12:49:55.802Z,83808
2016-12-20T12:50:12.975Z,99488
2016-12-20T12:50:30.297Z,98560
2016-12-20T12:50:48.019Z,104960
2016-12-20T12:51:05.344Z,84640
2016-12-20T12:51:22.545Z,79072
2016-12-20T12:51:39.757Z,78432
2016-12-20T12:51:57.002Z,66880
2016-12-20T12:52:14.263Z,69504
2016-12-20T12:52:31.475Z,69792
2016-12-20T12:52:48.764Z,69728
2016-12-20T12:53:06.327Z,72512
2016-12-20T12:53:24.743Z,76992
2016-12-20T12:53:42.150Z,65088
2016-12-20T12:53:59.427Z,67328
2016-12-20T12:54:16.699Z,80288
2016-12-20T12:54:33.896Z,71648
2016-12-20T12:54:51.133Z,80288
2016-12-20T12:55:08.340Z,84640
2016-12-20T12:55:25.631Z,94592
2016-12-20T12:55:43.400Z,74880
2016-12-20T12:56:00.592Z,70016
2016-12-20T12:56:17.843Z,67840
2016-12-20T12:56:35.029Z,67200
2016-12-20T12:56:52.396Z,80992
2016-12-20T12:57:09.637Z,80000
2016-12-20T12:57:26.954Z,75424
2016-12-20T12:57:44.750Z,99968
2016-12-20T12:58:02.328Z,80864
2016-12-20T12:58:19.568Z,95936
2016-12-20T12:58:36.834Z,92928
2016-12-20T12:58:54.136Z,96928
2016-12-20T12:59:11.352Z,114048
2016-12-20T12:59:28.611Z,122208
2016-12-20T12:59:45.905Z,112640
2016-12-20T13:00:03.174Z,109472
2016-12-20T13:00:20.453Z,106656
2016-12-20T13:00:37.709Z,97664
2016-12-20T13:00:54.926Z,89344
2016-12-20T13:01:12.337Z,90528
2016-12-20T13:01:29.692Z,92800
2016-12-20T13:01:46.895Z,88864
2016-12-20T13:02:04.099Z,111264
2016-12-20T13:02:21.287Z,112000
2016-12-20T13:02:38.807Z,118176
2016-12-20T13:02:56.084Z,114912
2016-12-20T13:03:13.296Z,119040
2016-12-20T13:03:30.627Z,116192
2016-12-20T13:04:02.233Z,126336
2016-12-20T13:04:19.560Z,126368
2016-12-20T13:04:36.826Z,126720
2016-12-20T13:04:53.993Z,126816
2016-12-20T13:05:11.208Z,129088
2016-12-20T13:05:28.438Z,128512
2016-12-20T13:05:45.629Z,129344
2016-12-20T13:06:02.818Z,129856
2016-12-20T13:06:20.045Z,128896
2016-12-20T13:06:37.510Z,129568
2016-12-20T13:06:54.754Z,129440
2016-12-20T13:07:12.058Z,126016
2016-12-20T13:07:29.344Z,129472
2016-12-20T13:07:46.542Z,125856
2016-12-20T13:08:04.329Z,105472
2016-12-20T13:08:21.548Z,117952
2016-12-20T13:08:39.006Z,126624
2016-12-20T13:08:56.220Z,125792
2016-12-20T13:09:13.437Z,130496
2016-12-20T13:09:30.722Z,107424
2016-12-20T13:09:48.000Z,95264
2016-12-20T13:10:05.771Z,104256
2016-12-20T13:10:22.979Z,105728
2016-12-20T13:10:40.315Z,89888
2016-12-20T13:10:58.380Z,86944
2016-12-20T13:11:15.599Z,92288
2016-12-20T13:11:32.860Z,85248
2016-12-20T13:11:50.082Z,80640
2016-12-20T13:12:07.332Z,80448
2016-12-20T13:12:25.079Z,84288
2016-12-20T13:12:42.412Z,99072
2016-12-20T13:12:59.758Z,105408
2016-12-20T13:13:17.589Z,103328
2016-12-20T13:13:34.857Z,111520
2016-12-20T13:13:52.163Z,93248
2016-12-20T13:14:10.387Z,99808
2016-12-20T13:14:28.738Z,98048
2016-12-20T13:14:45.953Z,119776
2016-12-20T13:15:03.156Z,104960
2016-12-20T13:15:20.417Z,101664
2016-12-20T13:15:37.632Z,96320
2016-12-20T13:15:54.830Z,91744
2016-12-20T13:16:12.027Z,98048
2016-12-20T13:16:29.229Z,111808
2016-12-20T13:16:46.417Z,92896
2016-12-20T13:17:03.626Z,115808
2016-12-20T13:17:20.867Z,120064
2016-12-20T13:17:38.095Z,119424
2016-12-20T13:17:55.328Z,114848
2016-12-20T13:18:12.602Z,105120
2016-12-20T13:18:30.321Z,94016
2016-12-20T13:18:47.824Z,87296
2016-12-20T13:19:05.302Z,94624
2016-12-20T13:19:36.879Z,86176
2016-12-20T13:20:08.882Z,75360
2016-12-20T13:20:40.505Z,74144
2016-12-20T13:20:57.737Z,82624
2016-12-20T13:21:29.756Z,85280
2016-12-20T13:21:47.293Z,91200
2016-12-20T13:22:04.549Z,93504
2016-12-20T13:22:36.189Z,90848
2016-12-20T13:22:53.809Z,94176
2016-12-20T13:23:11.023Z,94368
2016-12-20T13:23:28.233Z,87936
2016-12-20T13:23:45.442Z,84704
2016-12-20T13:24:02.625Z,73920
2016-12-20T13:24:19.809Z,78752
2016-12-20T13:24:37.011Z,75808
2016-12-20T13:24:54.267Z,83648
2016-12-20T13:25:11.483Z,71392
2016-12-20T13:25:29.001Z,74816
2016-12-20T13:25:46.225Z,66784
2016-12-20T13:26:03.455Z,65888
2016-12-20T13:26:20.661Z,72096
2016-12-20T13:26:37.839Z,66752
2016-12-20T13:26:55.032Z,63008
2016-12-20T13:27:12.218Z,63104
2016-12-20T13:27:29.438Z,63072
2016-12-20T13:27:46.692Z,62528
2016-12-20T13:28:03.901Z,63840
2016-12-20T13:28:21.118Z,69216
2016-12-20T13:28:38.345Z,71008
2016-12-20T13:28:55.591Z,87520
2016-12-20T13:29:12.823Z,103392
2016-12-20T13:29:30.080Z,125376
2016-12-20T13:29:47.301Z,117344
2016-12-20T13:30:04.455Z,134304
2016-12-20T13:30:21.659Z,113760
2016-12-20T13:30:38.899Z,108800
2016-12-20T13:30:56.116Z,131456
2016-12-20T13:31:13.357Z,127424
2016-12-20T13:31:30.599Z,132928
2016-12-20T13:31:47.871Z,125792
2016-12-20T13:32:05.062Z,127552
2016-12-20T13:32:22.297Z,134336
2016-12-20T13:32:40.246Z,122272
2016-12-20T13:32:57.469Z,120416
2016-12-20T13:33:14.654Z,120640
2016-12-20T13:33:31.864Z,127616
2016-12-20T13:33:49.657Z,116064
2016-12-20T13:34:06.889Z,98848
2016-12-20T13:34:24.174Z,99040
2016-12-20T13:34:41.367Z,100768
2016-12-20T13:34:58.598Z,80384
2016-12-20T13:35:15.873Z,94720
2016-12-20T13:35:33.100Z,95648
2016-12-20T13:35:50.349Z,86112
2016-12-20T13:36:07.627Z,98816
2016-12-20T13:36:24.837Z,98336
2016-12-20T13:36:42.058Z,97280
2016-12-20T13:36:59.261Z,87872
2016-12-20T13:37:16.443Z,82048
2016-12-20T13:37:33.682Z,75552
2016-12-20T13:37:50.903Z,71744
2016-12-20T13:38:08.138Z,71488
2016-12-20T13:38:25.433Z,74208
2016-12-20T13:38:42.682Z,78240
2016-12-20T13:38:59.901Z,99456
2016-12-20T13:39:17.107Z,110368
2016-12-20T13:39:34.328Z,123072
2016-12-20T13:39:51.575Z,119296
2016-12-20T13:40:08.949Z,126208
2016-12-20T13:40:26.124Z,129472
2016-12-20T13:40:43.378Z,134880
2016-12-20T13:41:00.611Z,135872
2016-12-20T13:41:32.229Z,144192
2016-12-20T13:41:49.442Z,145024
2016-12-20T13:42:06.679Z,147168
2016-12-20T13:42:23.882Z,149280
2016-12-20T13:42:41.122Z,148896
2016-12-20T13:42:58.889Z,148864
2016-12-20T13:43:16.058Z,149248
2016-12-20T13:43:33.250Z,148928
2016-12-20T13:43:50.693Z,148544
2016-12-20T13:44:07.936Z,147936
2016-12-20T13:44:25.117Z,148128
2016-12-20T13:44:42.325Z,146304
2016-12-20T13:44:59.555Z,144512
2016-12-20T13:45:16.746Z,143392
2016-12-20T13:45:34.005Z,142016
2016-12-20T13:45:51.211Z,139360
2016-12-20T13:46:08.497Z,138400
2016-12-20T13:46:25.750Z,139040
2016-12-20T13:46:42.948Z,139072
2016-12-20T13:47:00.140Z,138720
2016-12-20T13:47:17.325Z,138784
2016-12-20T13:47:34.565Z,141408
2016-12-20T13:47:51.726Z,134720
2016-12-20T13:48:08.905Z,131712
2016-12-20T13:48:26.137Z,108640
2016-12-20T13:48:43.857Z,115424
2016-12-20T13:49:01.128Z,123552
2016-12-20T13:49:18.944Z,120096
2016-12-20T13:49:36.132Z,129984
2016-12-20T13:49:53.336Z,124832
2016-12-20T13:50:24.945Z,147072
2016-12-20T13:50:42.141Z,134400
2016-12-20T13:50:59.308Z,140128
2016-12-20T13:51:17.100Z,140160
2016-12-20T13:51:34.341Z,102688
2016-12-20T13:51:51.735Z,97120
2016-12-20T13:52:09.218Z,115552
2016-12-20T13:52:26.465Z,102944
2016-12-20T13:52:43.695Z,95808
2016-12-20T13:53:00.915Z,105664
2016-12-20T13:53:18.318Z,125280
2016-12-20T13:53:35.801Z,86080
2016-12-20T13:53:53.054Z,94656
2016-12-20T13:54:10.322Z,110208
2016-12-20T13:54:27.574Z,168960
2016-12-20T13:54:44.767Z,118720
2016-12-20T13:55:02.549Z,84608
2016-12-20T13:55:19.795Z,83968
2016-12-20T13:55:37.743Z,121504
2016-12-20T13:55:54.933Z,109472
2016-12-20T13:56:12.113Z,104352
2016-12-20T13:56:29.345Z,99680
2016-12-20T13:56:46.548Z,102656
2016-12-20T13:57:03.758Z,120704
2016-12-20T13:57:20.924Z,106208
2016-12-20T13:57:38.739Z,124320
2016-12-20T13:57:55.997Z,157696
2016-12-20T13:58:13.246Z,154944
2016-12-20T13:58:30.471Z,113280
2016-12-20T13:58:47.838Z,98080
2016-12-20T13:59:05.445Z,126976
2016-12-20T13:59:22.652Z,112032
2016-12-20T13:59:39.891Z,105184
2016-12-20T13:59:57.146Z,114944
2016-12-20T14:00:14.331Z,144096
2016-12-20T14:00:31.550Z,107808
2016-12-20T14:00:48.747Z,107296
2016-12-20T14:01:05.945Z,116736
2016-12-20T14:01:23.163Z,109088
2016-12-20T14:01:40.373Z,91360
2016-12-20T14:01:57.647Z,79648
2016-12-20T14:02:14.901Z,73056
2016-12-20T14:02:32.195Z,71808
2016-12-20T14:02:49.459Z,74848
2016-12-20T14:03:06.730Z,81632
2016-12-20T14:03:23.944Z,86432
2016-12-20T14:03:41.167Z,84224
2016-12-20T14:03:58.978Z,84096
2016-12-20T14:04:16.745Z,82944
2016-12-20T14:04:33.997Z,82720
2016-12-20T14:04:51.194Z,85440
2016-12-20T14:05:08.460Z,97568
2016-12-20T14:05:25.718Z,137472
2016-12-20T14:05:42.907Z,147584
2016-12-20T14:06:00.184Z,163360
2016-12-20T14:06:17.393Z,158368
2016-12-20T14:07:06.276Z,159264
2016-12-20T14:07:23.546Z,145952
2016-12-20T14:07:40.790Z,105312
2016-12-20T14:07:58.012Z,118112
2016-12-20T14:08:15.255Z,113472